Nearby METAR Reports

 

KCOE - Coeur D'alene, Idaho, USA
Distance from station: SSE 4mi, 7km
Updated: Mon, 22-Apr-2019 2:56am PDT
Clear
Clear
 Wind from S
Wind: S 8 mph , 13 km/h
Temperature: 43°F , 6°C
Wind Chill: 38°F , 3°C
Dew Point: 36°F , 2°C
Humidity: 76%
Barometer: 30.22 inHg , 1023.4 hPa
Clouds: Clear
Visibility: 10 miles , 16 km
2019/04/22 09:56 KCOE 220956Z AUTO 17007KT 10SM CLR 06/02 A3022 RMK AO2 SLP252 T00610022
KSFF - Spokane/Felts, Washington, USA
Distance from station: WSW 24mi, 39km
Updated: Mon, 22-Apr-2019 2:53am PDT
Clear
Clear
 Wind from NE
Wind: NE 3 mph , 6 km/h
Temperature: 43°F , 6°C
Dew Point: 34°F , 1°C
Humidity: 71%
Barometer: 30.22 inHg , 1023.4 hPa
Clouds: Clear
Visibility: 10 miles , 16 km
2019/04/22 09:53 KSFF 220953Z AUTO 04003KT 10SM CLR 06/01 A3022 RMK AO2 SLP231 T00560011
 
KDEW - Deer Park, Washington, USA
Distance from station: WNW 29mi, 47km
Updated: Mon, 22-Apr-2019 2:53am PDT
Clear
Clear
 Wind from SE
Wind: SE 6 mph , 9 km/h
Temperature: 45°F , 7°C
Wind Chill: 42°F , 6°C
Dew Point: 32°F , 0°C
Humidity: 61%
Barometer: 30.20 inHg , 1022.7 hPa
Clouds: Clear
Visibility: 10 miles , 16 km
2019/04/22 09:53 KDEW 220953Z AUTO 14005KT 10SM CLR 07/00 A3020 RMK AO2 SLP229 T00720000 $
KSZT - Wall/Sandpoint, Idaho, USA
Distance from station: NNE 35mi, 56km
Updated: Mon, 22-Apr-2019 2:55am PDT
Clear
Clear
 Wind from calm
Wind: Calm
Temperature: 36°F , 2°C
Dew Point: 34°F , 1°C
Humidity: 93%
Barometer: 30.21 inHg , 1023 hPa
Clouds: Clear
Visibility: 10 miles , 16 km
2019/04/22 09:55 KSZT 220955Z AUTO 00000KT 10SM CLR 02/01 A3021 RMK AO2
 
KGEG - Spokane/Metro, Washington, USA
Distance from station: WSW 35mi, 57km
Updated: Mon, 22-Apr-2019 2:53am PDT
Clear
Clear
 Wind from SSE
Wind: SSE 8 mph , 13 km/h
Temperature: 45°F , 7°C
Wind Chill: 41°F , 5°C
Dew Point: 32°F , 0°C
Humidity: 61%
Barometer: 30.20 inHg , 1022.7 hPa
Clouds: Clear
Visibility: 10 miles , 16 km
2019/04/22 09:53 KGEG 220953Z 16007KT 10SM CLR 07/00 A3020 RMK AO2 SLP226 T00720000
KSKA - Fairchild Afb, Washington, USA
Distance from station: WSW 40mi, 65km
Updated: Mon, 22-Apr-2019 2:58am PDT
Clear
Clear
 Wind from S
Wind: S 5 mph , 7 km/h
Temperature: 43°F , 6°C
Wind Chill: 40°F , 4°C
Dew Point: 37°F , 3°C
Humidity: 81%
Barometer: 30.19 inHg , 1022.4 hPa
Clouds: Clear
Visibility: 10 miles , 16 km
2019/04/22 09:58 KSKA 220958Z AUTO 18004KT 10SM CLR 06/03 A3019 RMK AO2 SLP229 T00550028 $